createdAt,value
2019-02-24T00:00:42.560Z,8.33
2019-02-24T00:03:10.242Z,8.60
2019-02-24T00:05:37.898Z,8.27
2019-02-24T00:08:05.841Z,8.70
2019-02-24T00:10:33.511Z,7.50
2019-02-24T00:13:01.165Z,8.70
2019-02-24T00:15:28.921Z,7.83
2019-02-24T00:17:56.581Z,7.80
2019-02-24T00:20:24.242Z,7.67
2019-02-24T00:22:51.901Z,7.47
2019-02-24T00:25:19.557Z,6.83
2019-02-24T00:27:47.222Z,7.00
2019-02-24T00:30:14.889Z,7.83
2019-02-24T00:32:42.541Z,7.87
2019-02-24T00:35:10.202Z,7.33
2019-02-24T00:37:37.866Z,7.33
2019-02-24T00:40:05.527Z,8.10
2019-02-24T00:42:33.186Z,8.10
2019-02-24T00:45:00.862Z,7.23
2019-02-24T00:47:28.521Z,8.60
2019-02-24T00:49:56.181Z,7.83
2019-02-24T00:52:23.839Z,8.23
2019-02-24T00:54:51.506Z,8.27
2019-02-24T00:57:19.246Z,8.43
2019-02-24T00:59:46.902Z,8.13
2019-02-24T01:02:14.565Z,8.53
2019-02-24T01:04:42.224Z,8.07
2019-02-24T01:07:09.890Z,7.93
2019-02-24T01:09:37.553Z,7.10
2019-02-24T01:12:05.219Z,7.50
2019-02-24T01:14:32.877Z,8.37
2019-02-24T01:17:00.544Z,7.97
2019-02-24T01:19:28.201Z,8.80
2019-02-24T01:21:55.859Z,8.50
2019-02-24T01:24:23.518Z,7.57
2019-02-24T01:26:51.182Z,8.67
2019-02-24T01:29:18.845Z,8.90
2019-02-24T01:31:46.496Z,8.07
2019-02-24T01:34:14.156Z,7.97
2019-02-24T01:36:41.826Z,9.13
2019-02-24T01:39:09.481Z,8.73
2019-02-24T01:41:37.154Z,8.60
2019-02-24T01:44:04.829Z,8.27
2019-02-24T01:46:32.479Z,9.03
2019-02-24T01:49:00.130Z,7.83
2019-02-24T01:51:27.800Z,8.17
2019-02-24T01:53:55.453Z,8.93
2019-02-24T01:56:23.117Z,7.93
2019-02-24T01:58:50.760Z,9.40
2019-02-24T02:01:18.429Z,9.47
2019-02-24T02:03:46.077Z,9.03
2019-02-24T02:06:13.750Z,10.37
2019-02-24T02:08:41.418Z,11.40
2019-02-24T02:11:09.091Z,11.73
2019-02-24T02:13:36.758Z,13.67
2019-02-24T02:16:04.446Z,10.53
2019-02-24T02:18:32.105Z,9.53
2019-02-24T02:20:59.824Z,9.90
2019-02-24T02:23:27.493Z,10.63
2019-02-24T02:25:55.165Z,11.57
2019-02-24T02:28:22.855Z,13.13
2019-02-24T02:30:50.520Z,10.53
2019-02-24T02:33:18.201Z,11.40
2019-02-24T02:35:45.862Z,9.20
2019-02-24T02:38:13.530Z,9.67
2019-02-24T02:40:41.189Z,8.57
2019-02-24T02:43:08.850Z,8.47
2019-02-24T02:45:36.504Z,8.83
2019-02-24T02:48:04.172Z,8.03
2019-02-24T02:50:31.838Z,9.53
2019-02-24T02:52:59.495Z,8.23
2019-02-24T02:55:27.159Z,8.27
2019-02-24T02:57:54.827Z,8.63
2019-02-24T03:00:22.485Z,8.57
2019-02-24T03:02:50.146Z,9.33
2019-02-24T03:05:17.825Z,10.53
2019-02-24T03:07:50.046Z,13.30
2019-02-24T03:10:17.714Z,10.63
2019-02-24T03:12:45.383Z,9.33
2019-02-24T03:15:13.096Z,9.37
2019-02-24T03:17:40.763Z,8.27
2019-02-24T03:20:08.429Z,9.10
2019-02-24T03:22:36.089Z,8.63
2019-02-24T03:25:03.739Z,7.57
2019-02-24T03:27:31.412Z,8.63
2019-02-24T03:29:59.067Z,8.97
2019-02-24T03:32:26.724Z,9.33
2019-02-24T03:34:54.392Z,8.50
2019-02-24T03:37:22.050Z,7.80
2019-02-24T03:39:49.720Z,9.00
2019-02-24T03:42:17.374Z,8.63
2019-02-24T03:44:45.031Z,9.00
2019-02-24T03:47:12.689Z,8.77
2019-02-24T03:49:40.346Z,8.33
2019-02-24T03:52:08.021Z,8.67
2019-02-24T03:54:35.674Z,8.50
2019-02-24T03:57:03.342Z,8.97
2019-02-24T03:59:31.011Z,7.43
2019-02-24T04:01:58.671Z,8.17
2019-02-24T04:04:26.328Z,9.43
2019-02-24T04:06:53.992Z,8.27
2019-02-24T04:09:21.650Z,8.43
2019-02-24T04:11:49.306Z,7.43
2019-02-24T04:14:16.967Z,7.93
2019-02-24T04:16:44.631Z,8.53
2019-02-24T04:19:12.299Z,8.27
2019-02-24T04:21:39.981Z,8.03
2019-02-24T04:24:07.634Z,8.07
2019-02-24T04:26:35.413Z,7.77
2019-02-24T04:29:03.069Z,8.33
2019-02-24T04:31:30.735Z,8.40
2019-02-24T04:33:58.395Z,8.43
2019-02-24T04:36:26.060Z,8.53
2019-02-24T04:38:53.726Z,8.40
2019-02-24T04:41:21.387Z,7.97
2019-02-24T04:43:49.045Z,7.73
2019-02-24T04:46:16.714Z,7.83
2019-02-24T04:48:44.368Z,8.10
2019-02-24T04:51:12.031Z,7.73
2019-02-24T04:53:39.692Z,7.27
2019-02-24T04:56:07.361Z,9.37
2019-02-24T04:58:35.006Z,8.73
2019-02-24T05:01:02.661Z,8.33
2019-02-24T05:03:30.325Z,8.10
2019-02-24T05:05:58.022Z,8.23
2019-02-24T05:08:25.736Z,8.07
2019-02-24T05:10:53.470Z,7.93
2019-02-24T05:13:21.143Z,7.67
2019-02-24T05:15:48.795Z,8.53
2019-02-24T05:18:16.453Z,8.80
2019-02-24T05:20:44.112Z,7.60
2019-02-24T05:23:11.771Z,7.77
2019-02-24T05:25:39.434Z,7.97
2019-02-24T05:28:07.111Z,8.10
2019-02-24T05:30:34.764Z,8.43
2019-02-24T05:33:02.452Z,8.17
2019-02-24T05:35:30.184Z,8.27
2019-02-24T05:37:57.841Z,7.87
2019-02-24T05:40:25.502Z,7.60
2019-02-24T05:42:53.162Z,8.40
2019-02-24T05:45:20.817Z,8.33
2019-02-24T05:47:48.481Z,8.43
2019-02-24T05:50:16.138Z,8.27
2019-02-24T05:52:43.804Z,8.50
2019-02-24T05:55:11.568Z,7.77
2019-02-24T05:57:39.237Z,9.03
2019-02-24T06:00:06.918Z,10.67
2019-02-24T06:02:34.586Z,10.23
2019-02-24T06:05:02.247Z,9.13
2019-02-24T06:07:29.908Z,8.90
2019-02-24T06:09:57.642Z,9.67
2019-02-24T06:12:25.302Z,8.43
2019-02-24T06:14:52.968Z,8.37
2019-02-24T06:17:20.626Z,8.53
2019-02-24T06:19:48.294Z,8.73
2019-02-24T06:22:15.955Z,8.00
2019-02-24T06:24:43.610Z,8.10
2019-02-24T06:27:11.265Z,8.23
2019-02-24T06:29:38.931Z,8.90
2019-02-24T06:32:06.603Z,7.73
2019-02-24T06:34:34.268Z,7.37
2019-02-24T06:37:01.935Z,7.47
2019-02-24T06:39:29.587Z,8.33
2019-02-24T06:41:57.262Z,7.63
2019-02-24T06:44:24.922Z,7.67
2019-02-24T06:46:52.594Z,8.13
2019-02-24T06:49:20.266Z,7.73
2019-02-24T06:51:47.934Z,7.73
2019-02-24T06:54:15.586Z,8.70
2019-02-24T06:56:43.242Z,8.87
2019-02-24T06:59:10.925Z,7.80
2019-02-24T07:01:38.582Z,8.00
2019-02-24T07:04:06.237Z,8.27
2019-02-24T07:06:33.893Z,8.30
2019-02-24T07:09:01.563Z,8.07
2019-02-24T07:11:29.228Z,8.90
2019-02-24T07:13:56.896Z,8.67
2019-02-24T07:16:24.541Z,8.43
2019-02-24T07:18:52.202Z,8.43
2019-02-24T07:21:19.870Z,8.43
2019-02-24T07:23:47.529Z,8.40
2019-02-24T07:26:15.177Z,9.20
2019-02-24T07:28:42.838Z,7.83
2019-02-24T07:31:10.496Z,8.53
2019-02-24T07:33:38.162Z,8.40
2019-02-24T07:36:05.818Z,9.00
2019-02-24T07:38:33.526Z,9.27
2019-02-24T07:41:01.230Z,9.33
2019-02-24T07:43:28.881Z,9.33
2019-02-24T07:45:56.535Z,9.47
2019-02-24T07:48:24.199Z,8.67
2019-02-24T07:50:51.844Z,9.17
2019-02-24T07:53:19.584Z,8.23
2019-02-24T07:55:47.242Z,8.70
2019-02-24T07:58:14.915Z,8.50
2019-02-24T08:00:42.634Z,8.47
2019-02-24T08:03:10.382Z,7.77
2019-02-24T08:05:38.033Z,7.30
2019-02-24T08:08:05.693Z,7.77
2019-02-24T08:10:33.337Z,7.87
2019-02-24T08:13:01.009Z,8.10
2019-02-24T08:15:28.668Z,8.77
2019-02-24T08:17:56.321Z,9.20
2019-02-24T08:20:24.070Z,8.03
2019-02-24T08:22:51.732Z,8.13
2019-02-24T08:25:19.407Z,7.33
2019-02-24T08:27:47.057Z,8.20
2019-02-24T08:30:14.701Z,8.23
2019-02-24T08:32:42.410Z,7.63
2019-02-24T08:35:10.077Z,7.20
2019-02-24T08:37:37.727Z,7.17
2019-02-24T08:40:05.383Z,7.63
2019-02-24T08:42:33.043Z,7.37
2019-02-24T08:45:00.720Z,7.87
2019-02-24T08:47:28.384Z,8.03
2019-02-24T08:49:56.035Z,8.00
2019-02-24T08:52:23.701Z,7.53
2019-02-24T08:54:51.383Z,8.33
2019-02-24T08:57:19.045Z,8.60
2019-02-24T08:59:46.701Z,7.80
2019-02-24T09:02:14.358Z,8.30
2019-02-24T09:04:42.085Z,8.43
2019-02-24T09:07:09.747Z,8.90
2019-02-24T09:09:37.394Z,8.93
2019-02-24T09:12:05.051Z,9.30
2019-02-24T09:14:32.702Z,8.80
2019-02-24T09:17:00.384Z,8.13
2019-02-24T09:19:28.035Z,9.73
2019-02-24T09:21:55.685Z,9.20
2019-02-24T09:24:23.353Z,9.13
2019-02-24T09:26:51.008Z,8.77
2019-02-24T09:29:18.671Z,8.93
2019-02-24T09:31:46.337Z,9.43
2019-02-24T09:34:13.989Z,9.00
2019-02-24T09:36:41.642Z,9.57
2019-02-24T09:39:09.302Z,8.17
2019-02-24T09:41:36.994Z,9.20
2019-02-24T09:44:04.656Z,9.07
2019-02-24T09:46:32.314Z,8.63
2019-02-24T09:48:59.993Z,10.27
2019-02-24T09:51:27.680Z,9.20
2019-02-24T09:53:55.344Z,10.17
2019-02-24T09:56:22.995Z,9.53
2019-02-24T09:58:50.663Z,8.63
2019-02-24T10:01:18.314Z,8.47
2019-02-24T10:03:45.999Z,9.47
2019-02-24T10:06:13.648Z,9.33
2019-02-24T10:08:41.309Z,9.83
2019-02-24T10:11:08.961Z,9.37
2019-02-24T10:13:36.618Z,10.73
2019-02-24T10:16:04.280Z,10.23
2019-02-24T10:18:31.957Z,10.10
2019-02-24T10:20:59.621Z,8.37
2019-02-24T10:23:27.279Z,8.67
2019-02-24T10:25:54.961Z,7.37
2019-02-24T10:28:22.615Z,9.33
2019-02-24T10:30:50.265Z,8.20
2019-02-24T10:33:17.929Z,9.37
2019-02-24T10:35:45.587Z,8.23
2019-02-24T10:38:13.238Z,9.47
2019-02-24T10:40:40.896Z,8.93
2019-02-24T10:43:08.575Z,8.07
2019-02-24T10:45:36.237Z,8.53
2019-02-24T10:48:13.462Z,8.63
2019-02-24T10:50:33.246Z,8.47
2019-02-24T10:53:00.903Z,8.13
2019-02-24T10:55:28.562Z,7.73
2019-02-24T10:57:56.215Z,7.73
2019-02-24T11:00:23.871Z,6.80
2019-02-24T11:02:51.518Z,8.30
2019-02-24T11:05:19.188Z,7.57
2019-02-24T11:07:46.843Z,8.03
2019-02-24T11:10:14.499Z,8.33
2019-02-24T11:12:42.149Z,9.03
2019-02-24T11:15:09.897Z,9.83
2019-02-24T11:17:37.568Z,11.73
2019-02-24T11:20:05.239Z,7.70
2019-02-24T11:22:32.877Z,7.97
2019-02-24T11:25:00.553Z,8.80
2019-02-24T11:27:28.202Z,6.63
2019-02-24T11:29:55.858Z,7.13
2019-02-24T11:32:23.593Z,6.63
2019-02-24T11:34:51.257Z,7.10
2019-02-24T11:37:18.924Z,6.03
2019-02-24T11:39:46.602Z,7.33
2019-02-24T11:42:14.258Z,6.73
2019-02-24T11:44:41.931Z,6.97
2019-02-24T11:47:09.583Z,7.03
2019-02-24T11:49:37.240Z,5.27
2019-02-24T11:52:04.889Z,4.63
2019-02-24T11:54:32.542Z,5.87
2019-02-24T11:57:00.194Z,4.67
2019-02-24T11:59:27.840Z,5.70
2019-02-24T12:01:55.494Z,5.00
2019-02-24T12:04:23.159Z,5.20
2019-02-24T12:06:50.839Z,5.30
2019-02-24T12:09:18.484Z,4.80
2019-02-24T12:11:46.219Z,4.97
2019-02-24T12:14:13.874Z,5.17
2019-02-24T12:16:41.516Z,5.60
2019-02-24T12:19:09.164Z,4.67
2019-02-24T12:21:36.827Z,5.10
2019-02-24T12:24:04.459Z,5.37
2019-02-24T12:26:32.138Z,5.50
2019-02-24T12:28:59.783Z,4.80
2019-02-24T12:31:27.456Z,4.60
2019-02-24T12:33:56.824Z,4.00
2019-02-24T12:36:24.466Z,4.00
2019-02-24T12:38:52.112Z,4.17
2019-02-24T12:41:19.768Z,4.23
2019-02-24T12:43:47.415Z,4.27
2019-02-24T12:46:15.066Z,4.37
2019-02-24T12:48:42.731Z,4.27
2019-02-24T12:51:10.385Z,4.50
2019-02-24T12:53:38.027Z,4.10
2019-02-24T12:56:05.679Z,3.60
2019-02-24T12:58:33.330Z,4.37
2019-02-24T13:01:00.980Z,3.50
2019-02-24T13:03:28.633Z,4.07
2019-02-24T13:05:56.297Z,4.23
2019-02-24T13:08:23.963Z,3.83
2019-02-24T13:10:51.605Z,4.43
2019-02-24T13:13:19.253Z,4.10
2019-02-24T13:15:46.896Z,3.83
2019-02-24T13:18:14.550Z,3.87
2019-02-24T13:20:42.213Z,4.20
2019-02-24T13:23:09.877Z,4.43
2019-02-24T13:25:37.526Z,4.30
2019-02-24T13:28:05.181Z,4.17
2019-02-24T13:30:32.828Z,4.23
2019-02-24T13:33:00.470Z,4.13
2019-02-24T13:35:28.127Z,4.03
2019-02-24T13:37:55.784Z,4.57
2019-02-24T13:40:23.440Z,4.17
2019-02-24T13:42:51.092Z,3.47
2019-02-24T13:45:18.741Z,4.50
2019-02-24T13:47:46.385Z,5.00
2019-02-24T13:50:14.041Z,4.17
2019-02-24T13:52:41.681Z,4.13
2019-02-24T13:55:09.334Z,4.73
2019-02-24T13:57:36.989Z,4.07
2019-02-24T14:00:04.647Z,5.07
2019-02-24T14:02:32.294Z,4.40
2019-02-24T14:04:59.935Z,4.07
2019-02-24T14:07:27.597Z,4.10
2019-02-24T14:09:55.253Z,4.27
2019-02-24T14:12:22.914Z,4.30
2019-02-24T14:14:50.563Z,4.20
2019-02-24T14:17:18.227Z,4.43
2019-02-24T14:19:45.883Z,4.10
2019-02-24T14:22:13.533Z,4.70
2019-02-24T14:24:41.178Z,4.17
2019-02-24T14:27:08.865Z,4.50
2019-02-24T14:29:36.926Z,4.37
2019-02-24T14:32:04.585Z,4.77
2019-02-24T14:34:32.227Z,4.77
2019-02-24T14:36:59.879Z,4.23
2019-02-24T14:39:27.526Z,4.40
2019-02-24T14:41:55.190Z,4.50
2019-02-24T14:44:22.829Z,3.83
2019-02-24T14:46:50.487Z,4.30
2019-02-24T14:49:18.140Z,4.17
2019-02-24T14:51:45.798Z,3.60
2019-02-24T14:54:13.441Z,4.10
2019-02-24T14:56:41.091Z,3.90
2019-02-24T14:59:08.733Z,4.20
2019-02-24T15:01:36.386Z,4.13
2019-02-24T15:04:04.032Z,4.27
2019-02-24T15:06:31.681Z,4.00
2019-02-24T15:08:59.336Z,3.63
2019-02-24T15:11:26.993Z,3.60
2019-02-24T15:13:54.655Z,3.80
2019-02-24T15:16:22.308Z,4.33
2019-02-24T15:18:49.955Z,3.77
2019-02-24T15:21:17.609Z,4.07
2019-02-24T15:23:45.447Z,4.00
2019-02-24T15:26:13.097Z,3.67
2019-02-24T15:28:40.750Z,3.93
2019-02-24T15:31:08.409Z,3.40
2019-02-24T15:33:36.053Z,3.80
2019-02-24T15:36:03.703Z,2.83
2019-02-24T15:38:31.344Z,3.50
2019-02-24T15:40:58.992Z,3.77
2019-02-24T15:43:26.646Z,3.40
2019-02-24T15:45:54.307Z,3.37
2019-02-24T15:48:21.963Z,3.57
2019-02-24T15:50:49.610Z,3.60
2019-02-24T15:53:17.280Z,3.77
2019-02-24T15:55:44.928Z,3.00
2019-02-24T15:58:12.585Z,3.53
2019-02-24T16:00:40.231Z,3.20
2019-02-24T16:03:07.904Z,4.30
2019-02-24T16:05:35.554Z,3.67
2019-02-24T16:08:03.200Z,3.60
2019-02-24T16:10:30.945Z,4.00
2019-02-24T16:12:58.592Z,3.53
2019-02-24T16:15:26.247Z,4.13
2019-02-24T16:17:53.904Z,3.33
2019-02-24T16:20:21.568Z,3.60
2019-02-24T16:22:49.226Z,3.67
2019-02-24T16:25:16.868Z,3.47
2019-02-24T16:27:44.514Z,4.03
2019-02-24T16:30:12.171Z,4.17
2019-02-24T16:32:39.832Z,4.13
2019-02-24T16:35:07.483Z,4.03
2019-02-24T16:37:35.150Z,3.87
2019-02-24T16:40:02.798Z,3.80
2019-02-24T16:42:30.474Z,3.53
2019-02-24T16:44:58.127Z,3.63
2019-02-24T16:47:25.886Z,3.93
2019-02-24T16:49:53.610Z,4.10
2019-02-24T16:52:21.258Z,3.27
2019-02-24T16:54:52.660Z,4.03
2019-02-24T16:57:18.256Z,3.70
2019-02-24T16:59:45.917Z,3.83
2019-02-24T17:02:22.652Z,3.83
2019-02-24T17:04:42.934Z,4.67
2019-02-24T17:07:10.616Z,4.10
2019-02-24T17:09:38.843Z,4.33
2019-02-24T17:12:06.622Z,4.13
2019-02-24T17:14:34.269Z,4.10
2019-02-24T17:17:01.973Z,3.93
2019-02-24T17:19:29.655Z,3.90
2019-02-24T17:21:57.311Z,3.90
2019-02-24T17:24:24.954Z,4.83
2019-02-24T17:26:52.626Z,4.30
2019-02-24T17:29:20.277Z,4.10
2019-02-24T17:31:47.926Z,4.43
2019-02-24T17:34:15.568Z,4.47
2019-02-24T17:36:43.213Z,3.43
2019-02-24T17:39:10.906Z,4.20
2019-02-24T17:41:38.549Z,4.67
2019-02-24T17:44:06.218Z,6.53
2019-02-24T17:46:33.863Z,6.87
2019-02-24T17:49:01.518Z,6.20
2019-02-24T17:51:29.161Z,4.67
2019-02-24T17:53:56.834Z,5.40
2019-02-24T17:56:24.480Z,5.20
2019-02-24T17:58:52.144Z,5.40
2019-02-24T18:01:19.791Z,5.00
2019-02-24T18:03:47.450Z,5.07
2019-02-24T18:06:15.102Z,4.07
2019-02-24T18:08:42.754Z,4.30
2019-02-24T18:11:10.405Z,4.70
2019-02-24T18:13:38.056Z,4.63
2019-02-24T18:16:05.708Z,4.90
2019-02-24T18:18:33.362Z,5.13
2019-02-24T18:21:01.013Z,4.70
2019-02-24T18:23:28.665Z,5.03
2019-02-24T18:25:56.312Z,6.17
2019-02-24T18:28:23.982Z,5.53
2019-02-24T18:30:51.639Z,4.83
2019-02-24T18:33:19.307Z,5.00
2019-02-24T18:35:46.956Z,5.27
2019-02-24T18:38:14.615Z,4.63
2019-02-24T18:40:42.267Z,5.23
2019-02-24T18:43:09.913Z,5.43
2019-02-24T18:45:37.573Z,4.93
2019-02-24T18:48:05.230Z,5.10
2019-02-24T18:50:32.883Z,6.23
2019-02-24T18:53:00.545Z,5.13
2019-02-24T18:55:28.190Z,5.47
2019-02-24T18:57:55.850Z,5.63
2019-02-24T19:00:23.514Z,5.83
2019-02-24T19:02:51.176Z,6.27
2019-02-24T19:05:18.827Z,5.90
2019-02-24T19:07:46.483Z,5.80
2019-02-24T19:10:14.132Z,7.00
2019-02-24T19:12:41.842Z,7.73
2019-02-24T19:15:09.500Z,6.40
2019-02-24T19:17:37.158Z,7.20
2019-02-24T19:20:04.824Z,7.70
2019-02-24T19:22:32.482Z,8.10
2019-02-24T19:25:00.284Z,7.40
2019-02-24T19:27:28.078Z,6.60
2019-02-24T19:29:55.737Z,7.07
2019-02-24T19:32:23.390Z,8.07
2019-02-24T19:34:51.046Z,7.67
2019-02-24T19:37:18.700Z,7.27
2019-02-24T19:39:46.345Z,8.33
2019-02-24T19:42:14.003Z,8.17
2019-02-24T19:44:41.669Z,8.77
2019-02-24T19:47:09.338Z,8.40
2019-02-24T19:49:37.283Z,9.10
2019-02-24T19:52:04.946Z,16.20
2019-02-24T19:54:32.618Z,10.87
2019-02-24T19:57:00.273Z,9.43
2019-02-24T19:59:27.933Z,9.50
2019-02-24T20:01:55.590Z,8.60
2019-02-24T20:04:23.247Z,9.37
2019-02-24T20:06:50.901Z,8.70
2019-02-24T20:09:18.575Z,9.47
2019-02-24T20:11:46.227Z,9.13
2019-02-24T20:14:13.931Z,9.43
2019-02-24T20:16:41.621Z,9.17
2019-02-24T20:19:09.287Z,9.00
2019-02-24T20:21:36.935Z,8.23
2019-02-24T20:24:04.582Z,8.87
2019-02-24T20:26:32.243Z,8.57
2019-02-24T20:28:59.888Z,8.47
2019-02-24T20:31:27.554Z,9.33
2019-02-24T20:33:55.226Z,8.17
2019-02-24T20:36:22.884Z,9.07
2019-02-24T20:38:50.569Z,9.63
2019-02-24T20:41:18.235Z,9.33
2019-02-24T20:43:45.896Z,9.33
2019-02-24T20:46:13.550Z,9.70
2019-02-24T20:48:41.210Z,10.47
2019-02-24T20:51:08.885Z,10.83
2019-02-24T20:53:36.553Z,10.10
2019-02-24T20:56:04.297Z,10.10
2019-02-24T20:58:32.072Z,10.57
2019-02-24T21:00:59.731Z,9.93
2019-02-24T21:03:27.393Z,11.63
2019-02-24T21:05:55.064Z,12.03
2019-02-24T21:08:22.720Z,11.27
2019-02-24T21:10:50.373Z,10.87
2019-02-24T21:13:18.044Z,11.20
2019-02-24T21:15:45.701Z,11.43
2019-02-24T21:18:13.374Z,11.00
2019-02-24T21:20:41.041Z,11.40
2019-02-24T21:23:08.799Z,11.00
2019-02-24T21:25:36.467Z,10.07
2019-02-24T21:28:04.114Z,9.53
2019-02-24T21:30:31.932Z,9.77
2019-02-24T21:32:59.721Z,9.07
2019-02-24T21:35:27.373Z,8.97
2019-02-24T21:37:55.022Z,8.50
2019-02-24T21:40:23.604Z,8.77
2019-02-24T21:42:51.541Z,9.17
2019-02-24T22:02:20.663Z,9.33
2019-02-24T22:04:48.327Z,8.90
2019-02-24T22:07:15.988Z,8.90
2019-02-24T22:09:43.646Z,8.70
2019-02-24T22:12:11.303Z,8.40
2019-02-24T22:14:38.970Z,8.83
2019-02-24T22:17:06.611Z,9.30
2019-02-24T22:19:34.275Z,8.83
2019-02-24T22:22:01.934Z,8.50
2019-02-24T22:24:29.628Z,8.13
2019-02-24T22:26:57.274Z,9.27
2019-02-24T22:29:24.926Z,8.47
2019-02-24T22:31:52.586Z,7.77
2019-02-24T22:34:20.254Z,8.23
2019-02-24T22:36:47.909Z,7.53
2019-02-24T22:39:15.575Z,7.60
2019-02-24T22:41:43.236Z,7.50
2019-02-24T22:44:10.911Z,7.53
2019-02-24T22:46:38.561Z,8.00
2019-02-24T22:49:06.225Z,7.53
2019-02-24T22:51:33.879Z,7.63
2019-02-24T22:54:01.551Z,6.40
2019-02-24T22:56:29.207Z,7.77
2019-02-24T22:58:56.861Z,7.43
2019-02-24T23:01:29.666Z,7.30
2019-02-24T23:03:57.322Z,7.07
2019-02-24T23:06:24.979Z,7.90
2019-02-24T23:08:52.634Z,7.90
2019-02-24T23:11:20.305Z,7.33
2019-02-24T23:13:47.950Z,7.03
2019-02-24T23:16:15.609Z,7.47
2019-02-24T23:18:43.259Z,7.60
2019-02-24T23:21:10.916Z,8.33
2019-02-24T23:23:38.575Z,7.80
2019-02-24T23:26:06.249Z,9.30
2019-02-24T23:28:33.911Z,14.57
2019-02-24T23:31:01.572Z,13.90
2019-02-24T23:33:29.239Z,12.03
2019-02-24T23:35:57.503Z,10.67
2019-02-24T23:38:25.358Z,12.10
2019-02-24T23:40:53.032Z,11.03
2019-02-24T23:43:20.696Z,10.77
2019-02-24T23:45:48.365Z,10.90
2019-02-24T23:48:16.022Z,9.70
2019-02-24T23:50:43.683Z,9.93
2019-02-24T23:53:11.355Z,8.50
2019-02-24T23:55:39.014Z,8.30
2019-02-24T23:58:06.684Z,8.77
